createdAt,value
2023-03-10T00:03:40.467Z,1.60
2023-03-10T00:09:01.577Z,1.61
2023-03-10T00:14:22.131Z,1.62
2023-03-10T00:19:42.976Z,1.61
2023-03-10T00:25:03.729Z,1.65
2023-03-10T00:30:24.319Z,1.72
2023-03-10T00:35:44.969Z,1.78
2023-03-10T00:41:08.656Z,1.85
2023-03-10T00:46:30.070Z,1.96
2023-03-10T00:51:50.711Z,1.95
2023-03-10T00:57:12.482Z,2.00
2023-03-10T01:02:32.788Z,2.07
2023-03-10T01:07:53.528Z,2.10
2023-03-10T01:13:15.620Z,2.19
2023-03-10T01:18:36.673Z,2.24
2023-03-10T01:23:57.816Z,2.26
2023-03-10T01:29:18.590Z,2.30
2023-03-10T01:34:39.172Z,2.31
2023-03-10T01:40:00.912Z,2.31
2023-03-10T01:45:21.669Z,2.30
2023-03-10T01:50:51.721Z,2.26
2023-03-10T01:56:12.582Z,2.24
2023-03-10T02:01:33.558Z,2.18
2023-03-10T02:06:57.258Z,2.17
2023-03-10T02:12:18.332Z,2.15
2023-03-10T02:17:40.433Z,2.13
2023-03-10T02:23:01.198Z,2.13
2023-03-10T02:28:23.530Z,2.09
2023-03-10T02:33:46.757Z,2.09
2023-03-10T02:39:11.236Z,2.09
2023-03-10T02:44:33.756Z,2.08
2023-03-10T02:49:54.419Z,2.03
2023-03-10T02:55:18.619Z,1.98
2023-03-10T03:00:41.597Z,2.02
2023-03-10T03:06:02.417Z,2.02
2023-03-10T03:11:23.992Z,1.99
2023-03-10T03:16:46.489Z,1.98
2023-03-10T03:22:07.233Z,1.96
2023-03-10T03:27:28.017Z,1.98
2023-03-10T03:32:49.499Z,2.00
2023-03-10T03:38:10.231Z,1.98
2023-03-10T03:43:31.403Z,1.95
2023-03-10T03:48:54.117Z,1.94
2023-03-10T03:54:14.873Z,1.91
2023-03-10T03:59:36.414Z,1.86
2023-03-10T04:04:57.194Z,1.81
2023-03-10T04:10:20.509Z,1.73
2023-03-10T04:15:41.711Z,1.68
2023-03-10T04:21:02.214Z,1.61
2023-03-10T04:26:23.935Z,1.58
2023-03-10T04:31:50.622Z,1.51
2023-03-10T04:37:23.844Z,1.46
2023-03-10T04:42:44.551Z,1.42
2023-03-10T04:48:06.698Z,1.40
2023-03-10T04:53:28.376Z,1.35
2023-03-10T04:58:49.833Z,1.34
2023-03-10T05:04:10.690Z,1.49
2023-03-10T05:09:31.333Z,1.45
2023-03-10T05:14:52.605Z,1.40
2023-03-10T05:20:14.453Z,1.39
2023-03-10T05:25:36.260Z,1.37
2023-03-10T05:30:57.714Z,1.35
2023-03-10T05:36:18.906Z,1.31
2023-03-10T05:41:42.449Z,1.30
2023-03-10T05:47:03.873Z,1.28
2023-03-10T05:52:24.580Z,1.29
2023-03-10T05:57:45.938Z,1.31
2023-03-10T06:03:07.119Z,1.32
2023-03-10T06:08:28.337Z,1.35
2023-03-10T06:13:49.218Z,1.38
2023-03-10T06:19:10.624Z,1.39
2023-03-10T06:24:31.460Z,1.47
2023-03-10T06:29:52.054Z,1.54
2023-03-10T06:35:14.729Z,1.62
2023-03-10T06:40:35.538Z,1.67
2023-03-10T06:45:56.423Z,1.73
2023-03-10T06:51:19.877Z,1.81
2023-03-10T06:56:40.777Z,1.93
2023-03-10T07:02:01.497Z,2.09
2023-03-10T07:07:21.773Z,2.25
2023-03-10T07:12:42.814Z,2.42
2023-03-10T07:18:03.315Z,2.67
2023-03-10T07:23:24.411Z,2.87
2023-03-10T07:28:44.948Z,3.06
2023-03-10T07:34:05.532Z,3.24
2023-03-10T07:39:26.097Z,3.38
2023-03-10T07:44:46.771Z,3.63
2023-03-10T07:50:07.802Z,3.94
2023-03-10T07:55:28.454Z,4.07
2023-03-10T08:00:57.071Z,4.06
2023-03-10T08:06:26.599Z,4.00
2023-03-10T08:11:47.098Z,4.06
2023-03-10T08:17:07.573Z,4.04
2023-03-10T08:22:29.501Z,4.18
2023-03-10T08:27:50.396Z,4.30
2023-03-10T08:40:43.254Z,4.54
2023-03-10T08:46:04.317Z,4.68
2023-03-10T08:51:26.507Z,4.88
2023-03-10T08:56:48.193Z,5.05
2023-03-10T09:02:15.298Z,5.18
2023-03-10T09:07:35.862Z,5.55
2023-03-10T09:13:11.266Z,5.72
2023-03-10T09:18:33.728Z,5.85
2023-03-10T09:23:54.329Z,5.99
2023-03-10T09:29:14.979Z,6.30
2023-03-10T09:34:35.543Z,6.62
2023-03-10T09:39:56.045Z,6.86
2023-03-10T09:45:31.672Z,7.21
2023-03-10T09:50:53.627Z,7.58
2023-03-10T09:56:21.163Z,8.71
2023-03-10T10:01:45.140Z,9.71
2023-03-10T10:07:14.974Z,9.94
2023-03-10T10:12:35.975Z,10.15
2023-03-10T10:18:18.853Z,10.23
2023-03-10T10:23:54.193Z,10.51
2023-03-10T10:29:29.017Z,10.79
2023-03-10T10:34:49.631Z,11.08
2023-03-10T10:40:24.602Z,11.80
2023-03-10T10:45:54.155Z,12.71
2023-03-10T10:51:38.750Z,15.51
2023-03-10T10:57:01.536Z,22.07
2023-03-10T11:02:32.275Z,24.80
2023-03-10T11:07:53.113Z,24.60
2023-03-10T11:13:21.105Z,28.29
2023-03-10T11:19:02.169Z,32.78
2023-03-10T11:24:24.548Z,32.20
2023-03-10T11:30:16.454Z,28.58
2023-03-10T11:35:45.567Z,23.61
2023-03-10T11:41:13.039Z,20.42
2023-03-10T11:46:54.736Z,18.12
2023-03-10T11:52:20.743Z,16.71
2023-03-10T11:57:45.787Z,15.15
2023-03-10T12:03:28.329Z,14.40
2023-03-10T12:08:53.263Z,14.07
2023-03-10T12:14:15.505Z,13.08
2023-03-10T12:20:09.212Z,12.18
2023-03-10T12:25:29.896Z,11.86
2023-03-10T12:30:57.804Z,11.39
2023-03-10T12:36:33.420Z,10.70
2023-03-10T12:42:04.530Z,10.11
2023-03-10T12:47:47.304Z,9.67
2023-03-10T12:53:27.068Z,9.49
2023-03-10T12:58:58.490Z,9.55
2023-03-10T13:04:22.609Z,9.19
2023-03-10T13:09:47.867Z,9.29
2023-03-10T13:15:24.413Z,9.28
2023-03-10T13:20:46.522Z,9.14
2023-03-10T13:26:15.292Z,9.17
2023-03-10T13:31:35.960Z,10.49
2023-03-10T13:37:23.859Z,11.06
2023-03-10T13:42:47.770Z,10.12
2023-03-10T13:48:13.442Z,9.29
2023-03-10T13:53:34.220Z,8.68
2023-03-10T13:58:58.184Z,8.32
2023-03-10T14:04:40.443Z,8.11
2023-03-10T14:10:03.822Z,7.89
2023-03-10T14:15:28.566Z,7.79
2023-03-10T14:20:49.122Z,7.47
2023-03-10T14:26:16.312Z,7.16
2023-03-10T14:31:37.010Z,6.97
2023-03-10T14:36:57.597Z,6.76
2023-03-10T14:42:25.003Z,6.55
2023-03-10T14:47:46.027Z,6.38
2023-03-10T14:53:12.423Z,6.19
2023-03-10T14:58:41.291Z,6.16
2023-03-10T15:04:02.135Z,6.08
2023-03-10T15:09:22.807Z,5.96
2023-03-10T15:14:50.849Z,5.85
2023-03-10T15:20:23.224Z,5.76
2023-03-10T15:25:45.729Z,5.76
2023-03-10T15:31:06.723Z,5.53
2023-03-10T15:36:27.206Z,5.38
2023-03-10T15:41:48.087Z,5.22
2023-03-10T15:47:08.547Z,4.68
2023-03-10T15:52:29.276Z,4.43
2023-03-10T15:57:50.185Z,4.21
2023-03-10T16:03:12.238Z,4.10
2023-03-10T16:08:37.290Z,4.01
2023-03-10T16:13:57.745Z,3.82
2023-03-10T16:19:18.518Z,3.69
2023-03-10T16:24:39.182Z,3.38
2023-03-10T16:30:01.146Z,3.26
2023-03-10T16:35:21.775Z,3.20
2023-03-10T16:40:50.202Z,3.11
2023-03-10T16:46:17.441Z,3.05
2023-03-10T16:51:39.888Z,2.78
2023-03-10T16:57:01.505Z,2.54
2023-03-10T17:02:22.062Z,2.41
2023-03-10T17:07:55.107Z,2.33
2023-03-10T17:13:16.123Z,2.13
2023-03-10T17:18:36.470Z,2.11
2023-03-10T17:23:57.023Z,2.14
2023-03-10T17:29:18.070Z,2.18
2023-03-10T17:34:39.878Z,2.15
2023-03-10T17:40:00.224Z,2.20
2023-03-10T17:45:21.012Z,2.24
2023-03-10T17:50:46.811Z,2.22
2023-03-10T17:56:08.201Z,2.26
2023-03-10T18:01:30.729Z,2.23
2023-03-10T18:06:51.155Z,2.17
2023-03-10T18:12:11.966Z,2.14
2023-03-10T18:17:32.529Z,2.22
2023-03-10T18:22:53.833Z,2.17
2023-03-10T18:28:16.733Z,1.99
2023-03-10T18:33:37.563Z,1.99
2023-03-10T18:38:58.071Z,2.00
2023-03-10T18:44:18.734Z,1.96
2023-03-10T18:49:39.609Z,1.97
2023-03-10T18:55:04.714Z,2.00
2023-03-10T19:00:26.107Z,1.97
2023-03-10T19:05:52.961Z,1.87
2023-03-10T19:11:14.780Z,1.76
2023-03-10T19:16:39.955Z,1.69
2023-03-10T19:22:00.932Z,1.68
2023-03-10T19:27:21.498Z,1.75
2023-03-10T19:32:42.247Z,1.83
2023-03-10T19:38:03.392Z,1.83
2023-03-10T19:43:24.158Z,1.78
2023-03-10T19:48:45.449Z,1.73
2023-03-10T19:54:07.469Z,1.79
2023-03-10T19:59:28.169Z,1.85
2023-03-10T20:04:50.470Z,1.82
2023-03-10T20:10:11.906Z,1.68
2023-03-10T20:15:32.381Z,1.63
2023-03-10T20:20:53.153Z,1.53
2023-03-10T20:26:14.208Z,1.48
2023-03-10T20:31:34.675Z,1.51
2023-03-10T20:36:55.131Z,1.43
2023-03-10T20:42:15.685Z,1.44
2023-03-10T20:47:36.536Z,1.47
2023-03-10T20:52:56.939Z,1.36
2023-03-10T20:58:17.240Z,1.17
2023-03-10T21:03:37.802Z,1.18
2023-03-10T21:09:01.732Z,1.18
2023-03-10T21:14:22.437Z,1.16
2023-03-10T21:19:42.949Z,1.21
2023-03-10T21:25:06.745Z,1.24
2023-03-10T21:30:30.308Z,1.33
2023-03-10T21:35:50.603Z,1.32
2023-03-10T21:41:14.125Z,1.31
2023-03-10T21:46:34.921Z,1.39
2023-03-10T21:51:55.476Z,1.41
2023-03-10T21:57:16.246Z,1.35
2023-03-10T22:02:37.222Z,1.31
2023-03-10T22:07:59.164Z,1.31
2023-03-10T22:13:19.870Z,1.32
2023-03-10T22:18:40.423Z,1.39
2023-03-10T22:24:00.616Z,1.36
2023-03-10T22:29:21.168Z,1.35
2023-03-10T22:34:42.054Z,1.35
2023-03-10T22:40:04.754Z,1.32
2023-03-10T22:45:28.037Z,1.30
2023-03-10T22:50:48.697Z,1.34
2023-03-10T22:56:09.279Z,1.27
2023-03-10T23:01:30.441Z,1.16
2023-03-10T23:06:51.451Z,1.06
2023-03-10T23:12:12.051Z,0.96
2023-03-10T23:17:32.890Z,1.04
2023-03-10T23:22:54.323Z,1.12
2023-03-10T23:28:15.739Z,1.21
2023-03-10T23:33:36.381Z,1.14
2023-03-10T23:38:56.689Z,1.18
2023-03-10T23:44:20.876Z,1.27
2023-03-10T23:49:41.384Z,1.40
2023-03-10T23:55:01.995Z,1.47
